createdAt,value
2017-10-13T00:00:21.998Z,80.90
2017-10-13T00:02:48.896Z,81.10
2017-10-13T00:05:15.890Z,81.20
2017-10-13T00:07:42.841Z,81.00
2017-10-13T00:10:09.726Z,81.20
2017-10-13T00:12:36.771Z,81.10
2017-10-13T00:15:03.678Z,81.40
2017-10-13T00:17:30.566Z,81.40
2017-10-13T00:19:57.570Z,81.50
2017-10-13T00:22:24.519Z,81.60
2017-10-13T00:24:51.802Z,81.40
2017-10-13T00:27:18.713Z,81.40
2017-10-13T00:29:45.657Z,81.60
2017-10-13T00:32:12.546Z,81.90
2017-10-13T00:34:39.461Z,81.90
2017-10-13T00:37:06.752Z,81.90
2017-10-13T00:39:33.633Z,81.90
2017-10-13T00:42:00.570Z,81.90
2017-10-13T00:44:27.538Z,81.90
2017-10-13T00:46:54.421Z,81.80
2017-10-13T00:49:21.356Z,81.70
2017-10-13T00:51:48.278Z,81.50
2017-10-13T00:54:15.164Z,81.20
2017-10-13T00:56:42.089Z,81.20
2017-10-13T00:59:09.365Z,81.20
2017-10-13T01:01:36.269Z,81.20
2017-10-13T01:04:03.195Z,81.40
2017-10-13T01:06:30.081Z,80.90
2017-10-13T01:08:57.366Z,81.10
2017-10-13T01:11:24.358Z,81.10
2017-10-13T01:13:51.255Z,80.90
2017-10-13T01:16:18.138Z,81.10
2017-10-13T01:18:45.105Z,81.10
2017-10-13T01:21:11.989Z,81.20
2017-10-13T01:23:38.873Z,81.40
2017-10-13T01:26:05.802Z,81.30
2017-10-13T01:28:32.687Z,81.30
2017-10-13T01:30:59.571Z,81.30
2017-10-13T01:33:26.485Z,81.40
2017-10-13T01:35:53.774Z,81.80
2017-10-13T01:38:20.655Z,81.70
2017-10-13T01:40:47.599Z,81.80
2017-10-13T01:43:14.475Z,82.00
2017-10-13T01:45:41.749Z,81.70
2017-10-13T01:48:08.773Z,81.70
2017-10-13T01:50:36.060Z,81.50
2017-10-13T01:53:02.963Z,81.50
2017-10-13T01:55:29.882Z,81.70
2017-10-13T01:57:56.762Z,81.80
2017-10-13T02:00:23.643Z,81.70
2017-10-13T02:02:50.558Z,81.60
2017-10-13T02:05:17.490Z,81.30
2017-10-13T02:07:44.374Z,81.20
2017-10-13T02:10:11.299Z,80.90
2017-10-13T02:12:38.580Z,81.80
2017-10-13T02:15:05.470Z,81.80
2017-10-13T02:17:32.390Z,81.90
2017-10-13T02:19:59.270Z,81.80
2017-10-13T02:22:26.159Z,82.00
2017-10-13T02:24:53.075Z,82.10
2017-10-13T02:27:20.373Z,82.40
2017-10-13T02:29:47.367Z,82.40
2017-10-13T02:32:14.285Z,82.40
2017-10-13T02:34:41.170Z,82.70
2017-10-13T02:37:08.456Z,83.00
2017-10-13T02:39:35.373Z,83.00
2017-10-13T02:42:02.655Z,83.30
2017-10-13T02:44:29.538Z,83.30
2017-10-13T02:46:56.458Z,83.30
2017-10-13T02:49:23.343Z,83.10
2017-10-13T02:51:50.221Z,82.90
2017-10-13T02:54:17.144Z,83.00
2017-10-13T02:56:44.447Z,83.20
2017-10-13T02:59:11.338Z,83.20
2017-10-13T03:01:38.285Z,83.30
2017-10-13T03:04:05.230Z,83.10
2017-10-13T03:06:32.178Z,83.10
2017-10-13T03:08:59.109Z,83.00
2017-10-13T03:11:25.989Z,83.10
2017-10-13T03:13:53.331Z,83.60
2017-10-13T03:16:20.247Z,83.60
2017-10-13T03:18:47.230Z,83.60
2017-10-13T03:21:14.518Z,84.10
2017-10-13T03:23:41.446Z,84.10
2017-10-13T03:26:08.334Z,84.00
2017-10-13T03:28:35.219Z,83.90
2017-10-13T03:31:02.559Z,83.80
2017-10-13T03:33:29.451Z,83.80
2017-10-13T03:35:56.358Z,83.60
2017-10-13T03:38:23.282Z,83.60
2017-10-13T03:40:50.171Z,83.60
2017-10-13T03:43:17.060Z,83.30
2017-10-13T03:45:43.981Z,83.70
2017-10-13T03:48:10.891Z,84.30
2017-10-13T03:50:38.186Z,84.20
2017-10-13T03:53:05.099Z,84.20
2017-10-13T03:55:32.381Z,84.30
2017-10-13T03:57:59.266Z,84.40
2017-10-13T04:00:26.191Z,84.40
2017-10-13T04:02:53.070Z,84.30
2017-10-13T04:05:20.024Z,84.60
2017-10-13T04:07:47.418Z,84.60
2017-10-13T04:10:14.319Z,84.60
2017-10-13T04:12:41.208Z,84.80
2017-10-13T04:15:08.210Z,84.60
2017-10-13T04:17:35.093Z,84.50
2017-10-13T04:20:02.110Z,84.40
2017-10-13T04:22:29.028Z,84.80
2017-10-13T04:24:55.998Z,84.90
2017-10-13T04:27:22.942Z,84.80
2017-10-13T04:29:49.890Z,84.80
2017-10-13T04:32:16.779Z,85.10
2017-10-13T04:34:43.681Z,85.00
2017-10-13T04:37:10.599Z,84.90
2017-10-13T04:39:37.574Z,84.80
2017-10-13T04:42:04.450Z,84.80
2017-10-13T04:44:31.476Z,85.00
2017-10-13T04:46:58.414Z,85.20
2017-10-13T04:49:25.361Z,85.10
2017-10-13T04:51:52.310Z,85.20
2017-10-13T04:54:19.198Z,85.00
2017-10-13T04:56:46.097Z,85.30
2017-10-13T04:59:13.026Z,85.10
2017-10-13T05:01:39.993Z,84.90
2017-10-13T05:04:06.933Z,84.90
2017-10-13T05:06:34.293Z,85.20
2017-10-13T05:09:01.238Z,85.30
2017-10-13T05:11:28.129Z,85.70
2017-10-13T05:13:55.046Z,85.50
2017-10-13T05:16:22.382Z,85.10
2017-10-13T05:18:49.333Z,85.10
2017-10-13T05:21:16.278Z,84.90
2017-10-13T05:23:43.242Z,84.90
2017-10-13T05:26:10.519Z,85.40
2017-10-13T05:28:37.466Z,85.40
2017-10-13T05:31:04.374Z,85.50
2017-10-13T05:33:31.310Z,84.80
2017-10-13T05:35:58.269Z,84.50
2017-10-13T05:38:25.188Z,84.60
2017-10-13T05:40:52.102Z,85.00
2017-10-13T05:43:19.036Z,85.40
2017-10-13T05:45:46.369Z,85.10
2017-10-13T05:48:13.264Z,85.10
2017-10-13T05:50:40.269Z,85.20
2017-10-13T05:53:07.256Z,84.90
2017-10-13T05:55:34.165Z,84.80
2017-10-13T05:58:01.116Z,85.00
2017-10-13T06:00:28.468Z,84.60
2017-10-13T06:02:55.368Z,84.60
2017-10-13T06:05:22.310Z,84.90
2017-10-13T06:07:49.199Z,84.90
2017-10-13T06:10:16.091Z,84.90
2017-10-13T06:12:43.028Z,85.30
2017-10-13T06:15:09.941Z,85.40
2017-10-13T06:17:36.879Z,85.30
2017-10-13T06:20:03.802Z,85.40
2017-10-13T06:22:30.694Z,85.50
2017-10-13T06:24:57.986Z,86.30
2017-10-13T06:27:24.980Z,86.30
2017-10-13T06:29:51.870Z,86.60
2017-10-13T06:32:18.776Z,86.90
2017-10-13T06:34:46.164Z,86.70
2017-10-13T06:37:13.069Z,86.70
2017-10-13T06:39:39.954Z,86.40
2017-10-13T06:42:06.877Z,86.30
2017-10-13T06:44:34.157Z,86.10
2017-10-13T06:47:01.042Z,86.00
2017-10-13T06:49:27.973Z,85.60
2017-10-13T06:51:54.866Z,85.50
2017-10-13T06:54:22.161Z,86.10
2017-10-13T06:56:49.078Z,86.10
2017-10-13T06:59:15.961Z,86.10
2017-10-13T07:01:42.868Z,85.60
2017-10-13T07:04:09.800Z,84.80
2017-10-13T07:06:37.107Z,84.80
2017-10-13T07:09:03.999Z,84.80
2017-10-13T07:11:31.310Z,84.30
2017-10-13T07:13:58.292Z,84.30
2017-10-13T07:16:25.178Z,84.30
2017-10-13T07:18:52.103Z,83.90
2017-10-13T07:21:19.405Z,83.50
2017-10-13T07:23:46.319Z,83.50
2017-10-13T07:26:13.267Z,83.30
2017-10-13T07:28:40.181Z,83.40
2017-10-13T07:31:07.458Z,83.00
2017-10-13T07:33:34.382Z,83.00
2017-10-13T07:36:01.734Z,83.10
2017-10-13T07:38:28.678Z,83.10
2017-10-13T07:40:55.605Z,83.00
2017-10-13T07:43:22.493Z,82.40
2017-10-13T07:45:49.410Z,82.50
2017-10-13T07:48:16.363Z,82.20
2017-10-13T07:50:43.310Z,82.20
2017-10-13T07:53:10.658Z,81.70
2017-10-13T07:55:37.606Z,81.70
2017-10-13T07:58:04.497Z,81.50
2017-10-13T08:00:31.385Z,81.20
2017-10-13T08:02:58.301Z,80.90
2017-10-13T08:05:25.222Z,80.90
2017-10-13T08:07:52.110Z,80.90
2017-10-13T08:10:19.040Z,80.90
2017-10-13T08:12:45.954Z,80.30
2017-10-13T08:15:12.858Z,80.30
2017-10-13T08:17:39.835Z,80.30
2017-10-13T08:20:06.842Z,80.50
2017-10-13T08:22:33.742Z,80.30
2017-10-13T08:25:01.081Z,80.70
2017-10-13T08:27:28.018Z,80.70
2017-10-13T08:29:54.981Z,81.10
2017-10-13T08:32:21.918Z,81.30
2017-10-13T08:34:48.806Z,81.10
2017-10-13T08:37:15.693Z,80.60
2017-10-13T08:39:42.662Z,80.50
2017-10-13T08:42:09.622Z,80.10
2017-10-13T08:44:36.515Z,79.70
2017-10-13T08:47:03.551Z,79.40
2017-10-13T08:49:30.433Z,79.00
2017-10-13T08:51:57.403Z,78.80
2017-10-13T08:54:24.322Z,78.70
2017-10-13T08:56:51.223Z,78.70
2017-10-13T08:59:18.114Z,78.90
2017-10-13T09:01:45.082Z,78.70
2017-10-13T09:04:12.039Z,78.40
2017-10-13T09:06:39.324Z,78.10
2017-10-13T09:09:06.328Z,78.10
2017-10-13T09:11:33.289Z,77.80
2017-10-13T09:14:01.078Z,77.60
2017-10-13T09:16:28.035Z,77.40
2017-10-13T09:18:54.938Z,76.90
2017-10-13T09:21:21.835Z,77.30
2017-10-13T09:23:48.825Z,77.20
2017-10-13T09:26:15.717Z,76.90
2017-10-13T09:28:42.607Z,76.70
2017-10-13T09:31:09.542Z,76.50
2017-10-13T09:33:36.435Z,75.90
2017-10-13T09:36:03.713Z,77.80
2017-10-13T09:38:30.642Z,77.80
2017-10-13T09:40:57.526Z,77.30
2017-10-13T09:43:24.522Z,77.60
2017-10-13T09:45:51.842Z,77.40
2017-10-13T09:48:18.725Z,77.40
2017-10-13T09:50:46.014Z,77.00
2017-10-13T09:53:12.933Z,77.00
2017-10-13T09:55:39.857Z,76.40
2017-10-13T09:58:07.158Z,76.60
2017-10-13T10:00:34.083Z,76.60
2017-10-13T10:03:00.970Z,76.60
2017-10-13T10:05:27.869Z,76.60
2017-10-13T10:07:55.184Z,76.20
2017-10-13T10:10:22.078Z,76.20
2017-10-13T10:12:48.957Z,76.40
2017-10-13T10:15:15.886Z,76.10
2017-10-13T10:17:42.872Z,76.00
2017-10-13T10:20:09.831Z,76.10
2017-10-13T10:22:36.754Z,75.90
2017-10-13T10:25:03.643Z,76.70
2017-10-13T10:27:30.921Z,76.60
2017-10-13T10:29:57.846Z,76.60
2017-10-13T10:32:25.122Z,76.60
2017-10-13T10:34:52.010Z,76.60
2017-10-13T10:37:18.947Z,76.70
2017-10-13T10:39:45.906Z,76.70
2017-10-13T10:42:12.857Z,76.70
2017-10-13T10:44:39.801Z,76.20
2017-10-13T10:47:06.752Z,75.50
2017-10-13T10:49:33.626Z,75.00
2017-10-13T10:52:00.649Z,74.50
2017-10-13T10:54:27.930Z,73.70
2017-10-13T10:56:54.819Z,73.70
2017-10-13T10:59:21.790Z,72.70
2017-10-13T11:01:48.699Z,73.20
2017-10-13T11:04:15.689Z,73.20
2017-10-13T11:06:42.654Z,72.80
2017-10-13T11:09:09.933Z,71.90
2017-10-13T11:11:36.813Z,71.90
2017-10-13T11:14:03.773Z,72.00
2017-10-13T11:16:30.655Z,72.00
2017-10-13T11:18:57.559Z,71.40
2017-10-13T11:21:24.473Z,71.40
2017-10-13T11:23:51.458Z,70.70
2017-10-13T11:26:18.347Z,70.90
2017-10-13T11:28:45.269Z,71.20
2017-10-13T11:31:12.547Z,70.90
2017-10-13T11:33:39.452Z,70.90
2017-10-13T11:36:06.377Z,71.00
2017-10-13T11:38:33.273Z,71.00
2017-10-13T11:41:00.197Z,70.30
2017-10-13T11:43:27.545Z,71.50
2017-10-13T11:45:54.487Z,71.50
2017-10-13T11:48:21.387Z,71.50
2017-10-13T11:50:48.301Z,71.70
2017-10-13T11:53:15.195Z,71.30
2017-10-13T11:55:42.074Z,71.40
2017-10-13T11:58:09.018Z,71.90
2017-10-13T12:00:35.893Z,72.50
2017-10-13T12:03:03.214Z,74.40
2017-10-13T12:05:30.161Z,74.40
2017-10-13T12:07:57.156Z,74.80
2017-10-13T12:10:24.054Z,75.00
2017-10-13T12:12:51.010Z,75.00
2017-10-13T12:15:17.951Z,74.90
2017-10-13T12:17:44.842Z,73.50
2017-10-13T12:20:11.837Z,73.70
2017-10-13T12:22:38.722Z,73.70
2017-10-13T12:25:05.630Z,73.60
2017-10-13T12:27:32.546Z,73.90
2017-10-13T12:29:59.526Z,74.50
2017-10-13T12:32:26.522Z,74.50
2017-10-13T12:34:53.564Z,74.90
2017-10-13T12:37:20.450Z,74.90
2017-10-13T12:39:47.409Z,75.00
2017-10-13T12:42:14.362Z,74.50
2017-10-13T12:44:41.249Z,74.50
2017-10-13T12:47:08.158Z,74.50
2017-10-13T12:49:35.486Z,75.40
2017-10-13T12:52:02.449Z,75.40
2017-10-13T12:54:29.405Z,75.70
2017-10-13T12:56:56.345Z,75.10
2017-10-13T12:59:23.249Z,75.00
2017-10-13T13:01:50.138Z,74.00
2017-10-13T13:04:17.065Z,73.70
2017-10-13T13:06:44.026Z,73.90
2017-10-13T13:09:10.980Z,73.90
2017-10-13T13:11:37.917Z,73.70
2017-10-13T13:14:04.797Z,73.30
2017-10-13T13:16:31.681Z,73.50
2017-10-13T13:18:58.706Z,73.80
2017-10-13T13:21:25.602Z,73.50
2017-10-13T13:23:52.493Z,74.40
2017-10-13T13:26:19.521Z,75.20
2017-10-13T13:28:46.807Z,76.10
2017-10-13T13:31:13.702Z,76.10
2017-10-13T13:33:41.055Z,77.00
2017-10-13T13:36:08.000Z,77.00
2017-10-13T13:38:34.974Z,77.00
2017-10-13T13:41:02.304Z,76.60
2017-10-13T13:43:29.245Z,76.60
2017-10-13T13:45:56.195Z,75.90
2017-10-13T13:48:23.185Z,75.30
2017-10-13T13:50:50.089Z,75.20
2017-10-13T13:53:17.038Z,75.20
2017-10-13T13:55:43.994Z,75.70
2017-10-13T13:58:11.265Z,75.90
2017-10-13T14:00:38.150Z,75.90
2017-10-13T14:03:05.071Z,76.00
2017-10-13T14:05:32.016Z,76.60
2017-10-13T14:07:58.920Z,77.30
2017-10-13T14:10:25.868Z,77.30
2017-10-13T14:12:52.758Z,77.20
2017-10-13T14:15:19.638Z,77.00
2017-10-13T14:17:46.646Z,76.50
2017-10-13T14:20:13.555Z,75.70
2017-10-13T14:22:40.489Z,75.70
2017-10-13T14:25:07.454Z,76.20
2017-10-13T14:27:34.737Z,76.60
2017-10-13T14:30:01.639Z,76.60
2017-10-13T14:32:28.555Z,76.50
2017-10-13T14:34:55.539Z,76.10
2017-10-13T14:37:22.934Z,76.00
2017-10-13T14:39:49.858Z,76.00
2017-10-13T14:42:17.145Z,75.70
2017-10-13T14:44:44.035Z,75.80
2017-10-13T14:47:10.945Z,75.70
2017-10-13T14:49:37.921Z,75.70
2017-10-13T14:52:04.874Z,75.80
2017-10-13T14:54:31.806Z,75.80
2017-10-13T14:56:58.692Z,75.70
2017-10-13T14:59:26.030Z,75.60
2017-10-13T15:01:53.012Z,75.60
2017-10-13T15:04:19.898Z,75.50
2017-10-13T15:06:46.866Z,75.20
2017-10-13T15:09:13.810Z,75.30
2017-10-13T15:11:40.706Z,75.30
2017-10-13T15:14:07.593Z,75.40
2017-10-13T15:16:34.525Z,75.40
2017-10-13T15:19:01.496Z,75.80
2017-10-13T15:21:28.803Z,75.30
2017-10-13T15:23:55.790Z,75.30
2017-10-13T15:26:22.736Z,75.10
2017-10-13T15:28:49.628Z,75.40
2017-10-13T15:31:16.677Z,75.50
2017-10-13T15:33:43.582Z,75.50
2017-10-13T15:36:10.529Z,76.00
2017-10-13T15:38:37.522Z,76.10
2017-10-13T15:41:04.430Z,76.40
2017-10-13T15:43:31.763Z,77.30
2017-10-13T15:45:58.724Z,77.30
2017-10-13T15:48:25.712Z,77.30
2017-10-13T15:50:52.659Z,77.40
2017-10-13T15:53:19.547Z,77.40
2017-10-13T15:55:46.505Z,76.80
2017-10-13T15:58:13.462Z,76.70
2017-10-13T16:00:40.816Z,76.60
2017-10-13T16:03:07.758Z,76.60
2017-10-13T16:05:34.681Z,76.80
2017-10-13T16:08:01.597Z,77.00
2017-10-13T16:10:28.491Z,77.20
2017-10-13T16:12:55.438Z,77.40
2017-10-13T16:15:22.387Z,77.40
2017-10-13T16:17:49.275Z,77.60
2017-10-13T16:20:16.185Z,77.40
2017-10-13T16:22:43.471Z,77.60
2017-10-13T16:25:10.482Z,77.60
2017-10-13T16:27:37.383Z,77.40
2017-10-13T16:30:04.290Z,77.10
2017-10-13T16:32:31.629Z,77.00
2017-10-13T16:34:58.621Z,77.00
2017-10-13T16:37:25.531Z,77.00
2017-10-13T16:39:52.834Z,77.00
2017-10-13T16:42:19.824Z,77.00
2017-10-13T16:44:46.738Z,77.00
2017-10-13T16:47:13.758Z,77.10
2017-10-13T16:49:40.770Z,77.40
2017-10-13T16:52:07.657Z,77.60
2017-10-13T16:54:34.710Z,77.60
2017-10-13T16:57:01.611Z,77.60
2017-10-13T16:59:28.493Z,77.70
2017-10-13T17:01:55.495Z,77.80
2017-10-13T17:04:22.442Z,78.00
2017-10-13T17:06:49.359Z,77.80
2017-10-13T17:09:16.268Z,78.10
2017-10-13T17:11:43.178Z,78.30
2017-10-13T17:14:10.132Z,78.00
2017-10-13T17:16:37.041Z,78.60
2017-10-13T17:19:04.013Z,79.10
2017-10-13T17:21:30.961Z,79.10
2017-10-13T17:23:57.878Z,79.10
2017-10-13T17:26:24.873Z,79.30
2017-10-13T17:28:52.227Z,79.30
2017-10-13T17:31:19.586Z,79.80
2017-10-13T17:33:46.926Z,79.90
2017-10-13T17:36:13.818Z,79.90
2017-10-13T17:38:40.715Z,80.00
2017-10-13T17:41:07.636Z,80.10
2017-10-13T17:43:34.606Z,80.00
2017-10-13T17:46:01.537Z,80.00
2017-10-13T17:48:28.421Z,80.10
2017-10-13T17:50:55.766Z,80.60
2017-10-13T17:53:23.091Z,80.40
2017-10-13T17:55:49.973Z,80.40
2017-10-13T17:58:17.257Z,81.00
2017-10-13T18:00:44.185Z,81.00
2017-10-13T18:03:11.106Z,81.00
2017-10-13T18:05:37.989Z,81.30
2017-10-13T18:08:04.918Z,81.60
2017-10-13T18:10:32.205Z,81.60
2017-10-13T18:12:59.089Z,81.60
2017-10-13T18:15:26.031Z,81.70
2017-10-13T18:17:52.927Z,82.00
2017-10-13T18:20:19.821Z,81.90
2017-10-13T18:22:46.783Z,82.10
2017-10-13T18:25:13.699Z,82.00
2017-10-13T18:27:40.587Z,82.20
2017-10-13T18:30:07.910Z,81.90
2017-10-13T18:32:34.803Z,81.90
2017-10-13T18:35:01.696Z,82.00
2017-10-13T18:37:28.638Z,81.80
2017-10-13T18:39:55.535Z,81.90
2017-10-13T18:42:22.462Z,82.10
2017-10-13T18:44:49.829Z,82.00
2017-10-13T18:47:17.121Z,82.20
2017-10-13T18:49:44.019Z,82.20
2017-10-13T18:52:11.362Z,82.30
2017-10-13T18:54:38.310Z,82.30
2017-10-13T18:57:05.198Z,82.40
2017-10-13T18:59:32.202Z,82.50
2017-10-13T19:01:59.153Z,82.60
2017-10-13T19:04:26.089Z,82.70
2017-10-13T19:06:53.050Z,83.10
2017-10-13T19:09:19.941Z,83.10
2017-10-13T19:11:46.834Z,83.40
2017-10-13T19:14:13.767Z,83.30
2017-10-13T19:16:40.780Z,83.20
2017-10-13T19:19:07.688Z,83.40
2017-10-13T19:21:35.013Z,84.10
2017-10-13T19:24:01.906Z,84.10
2017-10-13T19:26:28.824Z,84.20
2017-10-13T19:28:55.742Z,84.20
2017-10-13T19:31:22.634Z,84.10
2017-10-13T19:33:49.919Z,84.30
2017-10-13T19:36:16.845Z,84.30
2017-10-13T19:38:43.740Z,84.30
2017-10-13T19:41:10.625Z,84.00
2017-10-13T19:43:37.968Z,83.30
2017-10-13T19:46:05.323Z,83.60
2017-10-13T19:48:32.613Z,83.20
2017-10-13T19:50:59.618Z,83.20
2017-10-13T19:53:26.519Z,83.60
2017-10-13T19:55:53.505Z,83.60
2017-10-13T19:58:20.470Z,83.40
2017-10-13T20:00:47.357Z,83.30
2017-10-13T20:03:14.254Z,83.20
2017-10-13T20:05:41.601Z,82.70
2017-10-13T20:08:08.495Z,82.70
2017-10-13T20:10:35.397Z,82.70
2017-10-13T20:13:02.724Z,83.10
2017-10-13T20:15:29.705Z,83.10
2017-10-13T20:17:56.998Z,83.30
2017-10-13T20:20:23.993Z,83.30
2017-10-13T20:22:50.946Z,83.50
2017-10-13T20:25:17.885Z,83.70
2017-10-13T20:27:44.864Z,83.60
2017-10-13T20:30:12.198Z,83.80
2017-10-13T20:32:39.091Z,83.80
2017-10-13T20:35:06.023Z,84.00
2017-10-13T20:37:32.905Z,83.80
2017-10-13T20:39:59.886Z,84.00
2017-10-13T20:42:26.837Z,83.90
2017-10-13T20:44:53.779Z,83.90
2017-10-13T20:47:20.672Z,84.00
2017-10-13T20:49:47.671Z,83.90
2017-10-13T20:52:14.616Z,83.50
2017-10-13T20:54:41.566Z,83.50
2017-10-13T20:57:08.495Z,83.20
2017-10-13T20:59:35.382Z,83.20
2017-10-13T21:02:02.270Z,83.30
2017-10-13T21:04:29.191Z,83.50
2017-10-13T21:06:56.134Z,83.40
2017-10-13T21:09:23.021Z,83.30
2017-10-13T21:11:49.981Z,83.50
2017-10-13T21:14:16.867Z,83.60
2017-10-13T21:16:43.779Z,83.60
2017-10-13T21:19:10.704Z,83.50
2017-10-13T21:21:37.610Z,83.20
2017-10-13T21:24:04.496Z,83.10
2017-10-13T21:26:31.418Z,83.20
2017-10-13T21:28:58.406Z,83.10
2017-10-13T21:31:25.310Z,83.20
2017-10-13T21:33:52.299Z,83.20
2017-10-13T21:36:19.194Z,83.20
2017-10-13T21:38:46.089Z,83.30
2017-10-13T21:41:13.073Z,83.30
2017-10-13T21:43:39.992Z,83.20
2017-10-13T21:46:06.894Z,83.30
2017-10-13T21:48:33.809Z,83.60
2017-10-13T21:51:00.703Z,83.50
2017-10-13T21:53:27.695Z,83.40
2017-10-13T21:55:55.030Z,83.60
2017-10-13T21:58:22.382Z,83.70
2017-10-13T22:00:49.295Z,83.70
2017-10-13T22:03:16.285Z,83.60
2017-10-13T22:05:43.638Z,83.40
2017-10-13T22:08:10.930Z,83.60
2017-10-13T22:10:37.949Z,83.60
2017-10-13T22:13:05.293Z,83.40
2017-10-13T22:15:32.241Z,83.40
2017-10-13T22:17:59.225Z,83.40
2017-10-13T22:20:26.136Z,83.50
2017-10-13T22:22:53.121Z,83.40
2017-10-13T22:25:20.152Z,83.30
2017-10-13T22:27:47.434Z,83.00
2017-10-13T22:30:14.325Z,83.00
2017-10-13T22:32:41.265Z,83.10
2017-10-13T22:35:08.155Z,82.90
2017-10-13T22:37:35.062Z,83.10
2017-10-13T22:40:02.007Z,83.10
2017-10-13T22:42:28.957Z,83.00
2017-10-13T22:44:55.849Z,83.00
2017-10-13T22:47:22.789Z,82.90
2017-10-13T22:49:49.700Z,83.00
2017-10-13T22:52:16.999Z,83.30
2017-10-13T22:54:43.993Z,83.30
2017-10-13T22:57:10.966Z,83.40
2017-10-13T22:59:38.295Z,83.50
2017-10-13T23:02:05.217Z,83.50
2017-10-13T23:04:32.123Z,83.40
2017-10-13T23:06:59.034Z,83.40
2017-10-13T23:09:25.999Z,83.00
2017-10-13T23:11:53.342Z,83.90
2017-10-13T23:14:20.691Z,84.40
2017-10-13T23:16:47.622Z,84.40
2017-10-13T23:19:14.594Z,84.10
2017-10-13T23:21:41.576Z,84.20
2017-10-13T23:24:08.494Z,84.30
2017-10-13T23:26:35.786Z,84.60
2017-10-13T23:29:03.141Z,84.60
2017-10-13T23:31:30.181Z,84.60
2017-10-13T23:33:57.078Z,84.70
2017-10-13T23:36:23.977Z,84.40
2017-10-13T23:38:51.420Z,84.10
2017-10-13T23:41:18.374Z,84.10
2017-10-13T23:43:45.322Z,84.10
2017-10-13T23:46:12.270Z,84.20
2017-10-13T23:48:39.182Z,84.20
2017-10-13T23:51:06.162Z,84.20
2017-10-13T23:53:33.089Z,83.90
2017-10-13T23:56:00.049Z,83.70
2017-10-13T23:58:26.946Z,83.60
